Time;durP1;ratioP1;P1;durP2;ratioP2;P2;SDS_P1;SDS_P2;PMS_P1;PMS_P2;Temp;Humidity;BMP_temperature;BMP_pressure;BME280_temperature;BME280_humidity;BME280_pressure;Samples;Min_cycle;Max_cycle;Signal;HPM_P1;HPM_P2
2022/06/26 00:02:18;;;;;;;8.20;5.20;;;;;;;17.46;73.16;99650.15;104784;1277;25508;-71
2022/06/26 00:04:45;;;;;;;12.30;5.00;;;;;;;17.42;73.16;99652.21;104722;1277;139435;-71
2022/06/26 00:07:11;;;;;;;9.60;5.10;;;;;;;17.39;73.35;99658.70;105027;1278;23142;-71
2022/06/26 00:09:38;;;;;;;10.90;5.50;;;;;;;17.35;73.31;99657.81;104764;1278;22565;-71
2022/06/26 00:12:05;;;;;;;7.60;4.90;;;;;;;17.30;73.46;99662.23;104737;1278;138819;-71
2022/06/26 00:14:32;;;;;;;13.50;5.10;;;;;;;17.27;73.55;99665.32;109101;1277;23435;-72
2022/06/26 00:16:59;;;;;;;9.80;5.20;;;;;;;17.23;73.72;99663.72;108899;1277;139509;-72
2022/06/26 00:19:26;;;;;;;10.90;5.10;;;;;;;17.22;73.76;99669.92;109019;1275;23266;-72
2022/06/26 00:21:52;;;;;;;6.60;5.20;;;;;;;17.18;73.87;99673.86;109025;1277;22669;-72
2022/06/26 00:24:19;;;;;;;8.50;4.80;;;;;;;17.15;73.97;99673.50;108960;1277;138308;-71
2022/06/26 00:26:46;;;;;;;6.30;4.70;;;;;;;17.12;74.18;99673.31;109106;1277;23222;-72
2022/06/26 00:29:13;;;;;;;9.60;4.70;;;;;;;17.10;74.32;99673.89;108953;1278;138812;-71
2022/06/26 00:31:41;;;;;;;9.80;5.30;;;;;;;17.08;74.41;99675.95;109100;1278;22456;-72
2022/06/26 00:34:08;;;;;;;6.90;4.80;;;;;;;17.05;74.51;99670.91;109088;1277;22437;-73
2022/06/26 00:36:34;;;;;;;9.40;4.80;;;;;;;17.04;74.72;99671.60;106452;1277;139834;-72
2022/06/26 00:39:01;;;;;;;6.30;4.90;;;;;;;17.00;74.70;99668.80;104732;1278;25282;-72
2022/06/26 00:41:28;;;;;;;11.20;4.60;;;;;;;16.96;74.61;99671.12;104628;1277;138822;-72
2022/06/26 00:43:55;;;;;;;6.40;5.30;;;;;;;16.91;74.72;99677.05;104713;1277;23064;-73
2022/06/26 00:46:24;;;;;;;11.20;5.40;;;;;;;16.87;75.03;99677.52;104725;1277;25032;-73
2022/06/26 00:48:52;;;;;;;6.70;4.80;;;;;;;16.85;75.06;99681.45;108898;1277;140033;-73
2022/06/26 00:51:19;;;;;;;9.60;4.60;;;;;;;16.82;75.13;99680.05;109084;1278;22475;-73
2022/06/26 00:53:46;;;;;;;7.10;5.20;;;;;;;16.79;75.27;99685.48;108952;1278;138118;-73
2022/06/26 00:56:13;;;;;;;13.70;5.00;;;;;;;16.76;75.42;99682.71;109033;1277;22432;-73
2022/06/26 00:58:40;;;;;;;6.80;5.00;;;;;;;16.74;75.46;99685.04;108972;1277;139277;-72
2022/06/26 01:01:07;;;;;;;12.30;4.90;;;;;;;16.72;75.50;99682.45;109075;1278;23152;-73
2022/06/26 01:03:34;;;;;;;6.40;4.70;;;;;;;16.70;75.62;99680.11;109129;1277;22482;-73
2022/06/26 01:06:00;;;;;;;8.40;4.90;;;;;;;16.68;75.76;99676.22;107520;1277;138556;-73
2022/06/26 01:08:27;;;;;;;10.40;5.40;;;;;;;16.66;75.87;99681.79;104700;1279;22642;-72
2022/06/26 01:10:54;;;;;;;6.60;5.00;;;;;;;16.64;75.84;99679.45;108819;1277;138369;-72
2022/06/26 01:13:21;;;;;;;9.50;5.90;;;;;;;16.61;75.96;99679.55;109126;1277;22459;-73
2022/06/26 01:15:48;;;;;;;7.80;5.30;;;;;;;16.59;76.01;99680.30;108859;1278;22256;-72
2022/06/26 01:18:15;;;;;;;8.50;5.50;;;;;;;16.57;76.12;99683.64;108971;1277;138527;-72
2022/06/26 01:20:42;;;;;;;7.00;4.70;;;;;;;16.56;76.18;99685.69;108843;1278;22414;-72
2022/06/26 01:23:09;;;;;;;13.00;5.00;;;;;;;16.55;76.23;99687.40;108762;1278;138434;-72
2022/06/26 01:25:41;;;;;;;7.30;4.90;;;;;;;16.53;76.08;99688.20;109085;1277;22493;-72
2022/06/26 01:28:08;;;;;;;9.70;5.10;;;;;;;16.49;76.08;99687.58;109102;1277;22447;-72
2022/06/26 01:30:35;;;;;;;5.20;4.30;;;;;;;16.47;76.21;99687.54;108989;1277;139010;-73
2022/06/26 01:33:02;;;;;;;11.60;5.00;;;;;;;16.43;76.38;99685.29;109108;1277;22465;-73
2022/06/26 01:35:29;;;;;;;7.60;5.20;;;;;;;16.43;76.46;99688.71;109013;1277;138640;-72
2022/06/26 01:38:16;;;;;;;7.00;5.10;;;;;;;16.40;76.49;99690.05;109150;1278;22480;-72
2022/06/26 01:40:44;;;;;;;8.30;5.00;;;;;;;16.39;76.55;99686.71;109077;1277;140402;-72
2022/06/26 01:43:12;;;;;;;8.50;5.00;;;;;;;16.37;76.58;99691.52;109146;1277;22475;-73
2022/06/26 01:45:47;;;;;;;6.70;4.50;;;;;;;16.34;76.67;99690.94;108935;1278;22454;-72
2022/06/26 01:48:14;;;;;;;7.60;4.30;;;;;;;16.33;76.99;99692.98;108770;1277;140723;-72
2022/06/26 01:50:41;;;;;;;6.90;5.00;;;;;;;16.33;76.83;99700.62;109082;1277;22952;-72
2022/06/26 01:53:09;;;;;;;6.20;4.80;;;;;;;16.32;76.75;99701.30;108621;1278;545930;-72
2022/06/26 01:56:46;;;;;;;6.80;4.80;;;;;;;16.33;77.07;99702.98;102044;1309;545864;-71
2022/06/26 01:59:15;;;;;;;6.30;4.60;;;;;;;16.30;77.02;99703.25;106480;1285;138544;-72
2022/06/26 02:01:45;;;;;;;8.00;4.90;;;;;;;16.30;77.23;99704.97;103846;1287;22590;-72
2022/06/26 02:04:16;;;;;;;6.90;4.70;;;;;;;16.27;77.18;99704.11;108143;1287;22476;-71
2022/06/26 02:06:43;;;;;;;6.70;4.60;;;;;;;16.26;77.43;99705.55;108111;1287;137848;-72
2022/06/26 02:14:47;;;;;;;5.80;4.70;;;;;;;16.24;77.73;99712.16;109121;1277;22476;-72
2022/06/26 02:17:14;;;;;;;7.90;4.90;;;;;;;16.24;77.88;99713.05;109095;1277;138654;-72
2022/06/26 02:19:41;;;;;;;12.10;4.80;;;;;;;16.23;77.91;99718.83;109135;1277;22512;-72
2022/06/26 02:22:08;;;;;;;6.90;5.10;;;;;;;16.24;78.25;99723.27;109147;1277;22372;-73
2022/06/26 02:24:41;;;;;;;6.50;4.40;;;;;;;16.25;78.44;99719.63;109000;1277;138160;-73
2022/06/26 02:27:08;;;;;;;9.30;5.20;;;;;;;16.28;78.72;99723.40;109052;1277;23221;-73
2022/06/26 02:29:35;;;;;;;9.20;5.20;;;;;;;16.30;78.81;99725.80;108908;1278;137996;-73
2022/06/26 02:32:02;;;;;;;10.10;5.30;;;;;;;16.32;78.95;99730.48;109329;1277;24469;-72
2022/06/26 02:34:28;;;;;;;9.10;4.90;;;;;;;16.35;79.06;99732.78;109077;1277;22548;-72
2022/06/26 02:36:55;;;;;;;7.30;4.90;;;;;;;16.38;79.10;99728.90;109063;1277;137972;-74
2022/06/26 02:39:22;;;;;;;9.00;5.80;;;;;;;16.40;79.16;99728.17;107973;1277;22591;-72
2022/06/26 02:41:50;;;;;;;8.10;4.20;;;;;;;16.43;79.44;99726.98;104660;1278;139418;-73
2022/06/26 02:44:17;;;;;;;8.80;4.50;;;;;;;16.47;79.47;99727.41;104709;1277;22570;-72
2022/06/26 02:46:44;;;;;;;12.80;6.00;;;;;;;16.50;79.62;99729.36;104685;1278;137886;-72
2022/06/26 02:49:11;;;;;;;5.00;4.50;;;;;;;16.54;79.72;99730.71;104718;1277;22549;-73
2022/06/26 02:51:38;;;;;;;8.40;4.80;;;;;;;16.57;79.88;99733.38;104777;1274;25265;-73
2022/06/26 02:54:05;;;;;;;7.30;5.00;;;;;;;16.62;79.95;99738.64;104630;1277;138858;-72
2022/06/26 02:56:31;;;;;;;6.40;5.20;;;;;;;16.69;79.91;99738.27;104770;1278;25534;-73
2022/06/26 02:58:59;;;;;;;7.90;4.80;;;;;;;16.79;79.64;99738.64;104865;1277;139283;-73
2022/06/26 03:01:26;;;;;;;6.00;4.50;;;;;;;16.90;79.29;99739.49;104774;1277;22638;-73
2022/06/26 03:03:59;;;;;;;7.60;4.70;;;;;;;17.05;78.85;99740.36;104719;1277;24294;-73
2022/06/26 03:06:26;;;;;;;5.80;4.60;;;;;;;17.20;78.56;99741.09;104646;1278;138258;-72
2022/06/26 03:08:52;;;;;;;5.20;4.60;;;;;;;17.35;78.05;99741.70;104769;1277;22583;-72
2022/06/26 03:11:19;;;;;;;5.60;4.00;;;;;;;17.50;77.48;99745.34;104704;1277;137942;-72
2022/06/26 03:13:46;;;;;;;5.80;4.40;;;;;;;17.65;77.05;99748.38;104968;1277;22558;-73
2022/06/26 03:16:13;;;;;;;7.60;4.40;;;;;;;17.79;76.42;99749.52;105091;1278;22756;-72
2022/06/26 03:18:40;;;;;;;6.60;4.20;;;;;;;17.95;76.13;99747.05;104823;1277;138669;-73
2022/06/26 03:21:08;;;;;;;7.20;4.60;;;;;;;18.09;75.61;99745.70;104971;1277;22569;-73
2022/06/26 03:26:22;;;;;;;6.50;4.20;;;;;;;18.40;74.42;99752.54;104761;1277;24256;-73
2022/06/26 03:28:49;;;;;;;8.60;4.40;;;;;;;18.55;73.96;99746.30;104648;1277;137899;-72
2022/06/26 03:31:16;;;;;;;11.00;4.80;;;;;;;18.69;73.71;99746.28;104754;1277;22558;-73
2022/06/26 03:33:44;;;;;;;8.30;4.60;;;;;;;18.83;73.14;99748.60;104751;1277;22549;-73
2022/06/26 03:36:10;;;;;;;7.80;4.10;;;;;;;18.97;72.72;99744.33;104597;1278;137754;-74
2022/06/26 03:38:37;;;;;;;5.90;4.60;;;;;;;19.10;72.38;99743.27;104696;1277;25654;-73
2022/06/26 03:41:04;;;;;;;5.80;4.50;;;;;;;19.22;71.99;99746.39;104702;1279;138171;-73
2022/06/26 03:43:31;;;;;;;5.40;4.40;;;;;;;19.33;71.44;99748.02;104964;1277;22709;-74
2022/06/26 03:45:58;;;;;;;8.60;4.30;;;;;;;19.45;71.13;99751.86;104826;1277;23987;-73
2022/06/26 03:48:26;;;;;;;5.90;3.90;;;;;;;19.55;70.48;99747.23;109171;1274;138243;-73
2022/06/26 03:50:53;;;;;;;7.10;4.50;;;;;;;19.67;70.08;99746.67;109268;1277;22595;-74
2022/06/26 03:53:20;;;;;;;6.60;4.60;;;;;;;19.78;69.61;99750.39;108997;1277;137768;-74
2022/06/26 03:55:47;;;;;;;5.20;4.30;;;;;;;19.89;68.98;99747.79;109111;1275;22489;-74
2022/06/26 03:58:14;;;;;;;6.00;4.30;;;;;;;19.99;68.65;99755.06;109149;1276;23281;-74
2022/06/26 04:00:41;;;;;;;7.50;4.90;;;;;;;20.09;68.25;99754.09;109053;1277;139727;-74
2022/06/26 04:03:09;;;;;;;7.90;4.20;;;;;;;20.19;68.36;99755.06;109205;1275;23091;-74
2022/06/26 04:05:39;;;;;;;4.40;3.40;;;;;;;20.27;67.99;99752.24;109172;1275;137758;-73
2022/06/26 04:08:06;;;;;;;6.30;4.30;;;;;;;20.35;66.94;99749.09;109173;1277;23345;-74
2022/06/26 04:10:41;;;;;;;7.40;4.10;;;;;;;20.40;66.66;99745.84;109086;1274;138577;-73
2022/06/26 04:13:23;;;;;;;6.00;4.30;;;;;;;20.49;66.41;99750.21;109320;1277;22552;-74
2022/06/26 04:15:50;;;;;;;5.20;4.60;;;;;;;20.54;66.22;99750.17;107450;1277;22552;-74
2022/06/26 04:18:19;;;;;;;4.50;4.10;;;;;;;20.58;66.01;99751.89;104988;1274;137835;-74
2022/06/26 04:20:45;;;;;;;7.60;4.70;;;;;;;20.64;65.83;99751.84;104832;1277;22728;-73
2022/06/26 04:23:13;;;;;;;7.40;4.10;;;;;;;20.69;65.39;99753.96;104573;1277;138994;-73
2022/06/26 04:25:41;;;;;;;8.20;4.10;;;;;;;20.75;65.52;99751.74;105049;1275;24287;-73
2022/06/26 04:28:08;;;;;;;8.50;4.10;;;;;;;20.81;65.38;99752.34;105032;1277;22689;-73
2022/06/26 04:30:37;;;;;;;9.50;4.60;;;;;;;20.88;65.21;99751.46;104728;1278;137369;-73
2022/06/26 04:33:04;;;;;;;9.90;4.40;;;;;;;20.92;65.54;99757.44;104791;1277;23176;-73
2022/06/26 04:35:32;;;;;;;4.70;4.10;;;;;;;20.97;65.12;99755.79;104788;1278;137994;-72
2022/06/26 04:38:00;;;;;;;5.30;4.20;;;;;;;21.01;64.55;99752.94;104822;1278;24315;-73
2022/06/26 04:40:27;;;;;;;5.40;3.80;;;;;;;21.04;63.85;99752.83;104660;1278;22576;-73
2022/06/26 04:42:55;;;;;;;4.90;3.90;;;;;;;21.04;63.73;99760.63;109163;1275;137220;-73
2022/06/26 04:45:22;;;;;;;5.00;4.10;;;;;;;21.05;63.67;99758.27;109314;1274;22471;-74
2022/06/26 04:47:52;;;;;;;5.10;4.40;;;;;;;21.08;63.42;99762.27;108969;1277;138591;-73
2022/06/26 04:50:19;;;;;;;4.00;3.60;;;;;;;21.11;63.48;99759.64;109217;1277;23213;-73
2022/06/26 04:52:46;;;;;;;7.30;3.80;;;;;;;21.16;63.23;99759.66;109265;1274;138643;-73
2022/06/26 04:55:14;;;;;;;4.10;3.60;;;;;;;21.23;63.48;99760.94;109233;1274;22561;-73
2022/06/26 04:57:44;;;;;;;9.90;3.60;;;;;;;21.29;63.07;99760.30;105134;1274;24434;-73
2022/06/26 05:00:13;;;;;;;4.90;4.00;;;;;;;21.34;62.27;99761.91;105007;1274;138212;-73
2022/06/26 05:02:51;;;;;;;5.00;3.70;;;;;;;21.40;62.19;99761.39;109310;1274;22419;-74
2022/06/26 05:05:39;;;;;;;5.40;3.70;;;;;;;21.48;62.10;99764.25;109352;1274;138205;-73
2022/06/26 05:08:41;;;;;;;6.50;4.60;;;;;;;21.59;61.70;99766.26;109296;1274;22427;-73
2022/06/26 05:11:08;;;;;;;4.50;3.90;;;;;;;21.67;61.76;99758.35;109357;1274;138539;-73
2022/06/26 05:13:37;;;;;;;8.60;3.90;;;;;;;21.81;61.47;99761.95;107044;1274;24272;-73
2022/06/26 05:16:32;;;;;;;7.50;4.10;;;;;;;21.98;61.28;99761.56;105082;1275;24233;-73
2022/06/26 05:19:00;;;;;;;4.70;3.70;;;;;;;22.14;60.57;99766.59;105114;1275;22585;-73
2022/06/26 05:21:28;;;;;;;4.80;3.50;;;;;;;22.36;60.09;99770.23;109375;1273;22457;-74
2022/06/26 05:23:55;;;;;;;4.00;3.60;;;;;;;22.62;59.61;99764.61;109402;1274;138438;-74
2022/06/26 05:26:23;;;;;;;7.00;3.90;;;;;;;22.94;59.14;99764.25;109405;1274;23179;-74
2022/06/26 05:28:53;;;;;;;4.70;3.40;;;;;;;23.33;57.87;99763.27;109372;1274;138532;-73
2022/06/26 05:31:20;;;;;;;5.60;3.30;;;;;;;23.74;56.42;99762.03;109319;1274;22438;-74
2022/06/26 05:33:47;;;;;;;5.20;3.70;;;;;;;24.04;55.10;99763.40;109516;1274;22558;-74
2022/06/26 05:36:14;;;;;;;6.80;3.20;;;;;;;24.22;54.59;99766.61;109426;1274;138281;-74
2022/06/26 05:38:42;;;;;;;3.80;3.30;;;;;;;24.30;54.16;99767.86;109416;1273;22452;-74
2022/06/26 05:41:09;;;;;;;4.50;3.10;;;;;;;24.35;54.17;99767.10;109296;1274;137285;-74
2022/06/26 05:43:36;;;;;;;4.50;3.10;;;;;;;24.50;53.59;99763.41;109486;1274;22430;-74
2022/06/26 05:46:07;;;;;;;5.40;4.10;;;;;;;24.75;53.27;99766.09;109354;1275;23046;-74
2022/06/26 05:48:53;;;;;;;;;;;;;;;25.01;52.46;99766.06;109396;1274;138690;-74
2022/06/26 05:51:29;;;;;;;5.40;4.50;;;;;;;25.16;51.60;99767.24;109415;1274;23104;-74
2022/06/26 05:54:07;;;;;;;6.80;3.80;;;;;;;25.26;51.21;99766.52;109361;1274;138104;-74
2022/06/26 05:56:52;;;;;;;4.80;4.20;;;;;;;25.32;51.01;99765.54;109525;1274;23754;-74
2022/06/26 05:59:31;;;;;;;4.50;3.60;;;;;;;25.41;51.27;99768.68;109340;1274;137536;-74
2022/06/26 06:02:09;;;;;;;5.20;3.30;;;;;;;25.45;50.39;99766.40;109365;1274;22436;-74
2022/06/26 06:04:36;;;;;;;4.00;3.60;;;;;;;25.36;50.41;99767.48;109344;1274;139396;-73
2022/06/26 06:07:03;;;;;;;4.70;3.80;;;;;;;25.26;50.58;99765.19;109349;1274;22890;-74
2022/06/26 06:09:30;;;;;;;4.70;4.20;;;;;;;25.20;50.60;99767.46;109441;1274;22513;-74
2022/06/26 06:11:57;;;;;;;4.50;4.10;;;;;;;25.18;50.91;99771.92;109222;1274;137451;-74
2022/06/26 06:14:24;;;;;;;6.70;3.70;;;;;;;25.16;50.84;99774.34;109337;1274;22488;-73
2022/06/26 06:16:51;;;;;;;10.00;4.00;;;;;;;25.12;50.71;99774.05;109191;1274;137358;-74
2022/06/26 06:19:19;;;;;;;5.90;3.40;;;;;;;25.12;50.37;99772.05;109296;1276;23815;-73
2022/06/26 06:21:46;;;;;;;5.90;3.90;;;;;;;25.11;50.66;99775.14;109238;1277;22457;-73
2022/06/26 06:24:12;;;;;;;13.60;4.80;;;;;;;25.08;50.51;99776.55;109220;1274;137629;-73
2022/06/26 06:26:39;;;;;;;6.60;4.20;;;;;;;25.05;50.47;99778.82;109417;1273;23786;-73
2022/06/26 06:29:17;;;;;;;11.30;7.80;;;;;;;24.97;50.56;99781.92;109251;1274;138049;-73
2022/06/26 06:31:44;;;;;;;30.90;17.80;;;;;;;24.90;51.21;99782.06;109329;1274;22462;-74
2022/06/26 06:34:12;;;;;;;33.10;19.30;;;;;;;24.85;51.97;99786.90;109438;1274;22574;-74
2022/06/26 06:36:39;;;;;;;42.80;23.10;;;;;;;24.83;52.12;99789.05;106731;1274;138975;-73
2022/06/26 06:39:07;;;;;;;41.60;23.10;;;;;;;24.83;51.88;99790.73;105008;1275;24260;-73
2022/06/26 06:41:34;;;;;;;40.00;22.40;;;;;;;24.80;51.91;99790.10;104706;1277;137993;-75
2022/06/26 06:44:04;;;;;;;29.20;13.70;;;;;;;24.78;52.43;99791.83;104835;1276;22541;-71
2022/06/26 06:46:30;;;;;;;22.40;12.60;;;;;;;24.80;53.04;99791.77;105085;1274;24397;-72
2022/06/26 06:49:06;;;;;;;11.30;6.70;;;;;;;24.86;51.79;99790.10;105120;1274;22760;-67
2022/06/26 06:51:41;;;;;;;18.10;10.40;;;;;;;24.87;51.60;99790.39;104996;1274;24269;-69
2022/06/26 06:54:08;;;;;;;14.20;8.50;;;;;;;24.89;51.47;99791.81;104940;1275;139933;-70
2022/06/26 06:56:35;;;;;;;9.50;5.90;;;;;;;24.88;51.21;99788.93;105093;1275;22559;-70
2022/06/26 06:59:03;;;;;;;3.70;3.30;;;;;;;24.87;51.13;99793.02;104916;1274;137242;-69
2022/06/26 07:01:29;;;;;;;6.30;3.20;;;;;;;24.87;50.76;99794.85;105079;1274;25362;-74
2022/06/26 07:03:57;;;;;;;4.20;3.10;;;;;;;24.87;50.66;99793.10;109478;1273;22490;-73
2022/06/26 07:06:24;;;;;;;5.20;3.80;;;;;;;24.87;50.71;99792.48;109213;1274;141160;-73
2022/06/26 07:08:52;;;;;;;3.70;3.00;;;;;;;24.90;50.73;99788.45;109532;1274;22486;-72
2022/06/26 07:11:19;;;;;;;8.80;3.30;;;;;;;24.96;50.88;99797.33;109178;1274;137368;-73
2022/06/26 07:13:46;;;;;;;6.70;3.20;;;;;;;25.00;51.23;99793.33;109254;1274;22501;-73
2022/06/26 07:16:13;;;;;;;5.90;3.50;;;;;;;25.05;50.93;99798.66;109415;1274;22478;-75
2022/06/26 07:18:40;;;;;;;6.70;3.60;;;;;;;25.09;51.26;99794.52;109176;1274;138875;-74
2022/06/26 07:21:07;;;;;;;3.80;3.50;;;;;;;25.11;50.57;99796.56;109297;1276;22484;-73
2022/06/26 07:23:35;;;;;;;7.20;3.30;;;;;;;25.11;50.73;99798.22;109122;1276;138239;-74
2022/06/26 07:26:16;;;;;;;5.20;2.90;;;;;;;25.10;50.91;99799.64;109419;1274;22454;-73
2022/06/26 07:28:44;;;;;;;5.80;2.90;;;;;;;25.12;49.89;99797.08;109216;1274;138379;-74
2022/06/26 07:31:11;;;;;;;4.90;3.00;;;;;;;25.15;50.37;99796.69;109337;1274;22458;-72
2022/06/26 07:36:23;;;;;;;6.00;3.60;;;;;;;25.20;51.03;99791.60;107203;1274;139001;-72
2022/06/26 07:38:51;;;;;;;7.90;3.30;;;;;;;25.23;50.61;99789.00;105139;1274;22578;-71
2022/06/26 07:41:19;;;;;;;4.00;2.90;;;;;;;25.27;49.95;99788.24;104893;1277;137582;-71
2022/06/26 07:43:47;;;;;;;3.40;3.10;;;;;;;25.27;50.08;99781.15;105103;1274;24461;-72
2022/06/26 07:46:13;;;;;;;6.20;2.90;;;;;;;25.27;49.96;99782.66;105115;1274;23103;-71
2022/06/26 07:48:41;;;;;;;5.90;3.00;;;;;;;25.28;49.45;99785.25;105041;1275;137972;-71
2022/06/26 07:51:08;;;;;;;8.70;3.20;;;;;;;25.25;49.22;99780.66;104991;1274;24305;-72
2022/06/26 07:53:36;;;;;;;4.50;3.00;;;;;;;25.21;49.08;99781.98;104798;1277;138291;-72
2022/06/26 07:56:04;;;;;;;4.80;2.80;;;;;;;25.19;49.46;99783.69;109416;1274;22438;-72
2022/06/26 07:58:31;;;;;;;5.20;3.40;;;;;;;25.19;49.21;99784.17;109413;1276;22438;-72
2022/06/26 08:00:58;;;;;;;3.50;2.80;;;;;;;25.19;49.24;99776.89;109413;1274;137196;-72
2022/06/26 08:03:24;;;;;;;4.30;2.80;;;;;;;25.18;48.90;99777.52;109480;1274;22447;-73
2022/06/26 08:05:51;;;;;;;5.60;3.20;;;;;;;25.14;48.78;99782.63;109354;1274;137353;-72
2022/06/26 08:08:18;;;;;;;6.50;3.20;;;;;;;25.10;48.75;99784.27;109379;1274;23370;-72
2022/06/26 08:10:45;;;;;;;4.40;3.10;;;;;;;25.09;48.79;99788.63;109453;1274;139743;-72
2022/06/26 08:13:12;;;;;;;6.50;3.00;;;;;;;25.10;49.46;99793.33;109540;1274;22217;-72
2022/06/26 08:15:38;;;;;;;6.30;2.50;;;;;;;25.13;49.60;99792.64;109531;1273;22449;-72
2022/06/26 08:18:07;;;;;;;4.30;2.30;;;;;;;25.18;50.06;99787.09;106274;1274;137525;-72
2022/06/26 08:20:34;;;;;;;3.70;3.00;;;;;;;25.28;49.44;99794.64;105076;1274;23812;-72
2022/06/26 08:23:00;;;;;;;4.20;2.80;;;;;;;25.36;49.41;99797.79;104984;1274;140085;-71
2022/06/26 08:25:27;;;;;;;3.80;2.10;;;;;;;25.42;49.06;99793.33;105190;1274;24306;-72
2022/06/26 08:27:54;;;;;;;10.30;3.00;;;;;;;25.47;46.08;99797.41;105187;1274;22573;-72
2022/06/26 08:30:21;;;;;;;5.70;3.30;;;;;;;25.54;43.77;99788.22;105090;1274;138676;-71
2022/06/26 08:32:48;;;;;;;4.50;2.50;;;;;;;25.59;42.79;99784.95;105157;1274;24934;-71
2022/06/26 08:35:15;;;;;;;13.70;3.00;;;;;;;25.63;43.86;99781.05;105004;1274;137540;-72
2022/06/26 08:37:42;;;;;;;8.30;2.50;;;;;;;25.69;43.99;99780.58;105233;1274;25215;-71
2022/06/26 08:40:09;;;;;;;6.20;2.10;;;;;;;25.73;44.34;99784.38;105045;1277;23077;-71
2022/06/26 08:42:39;;;;;;;6.40;2.80;;;;;;;25.76;44.66;99784.28;104984;1274;138593;-71
2022/06/26 08:45:06;;;;;;;5.50;2.40;;;;;;;25.75;44.13;99779.63;109439;1274;22414;-72
2022/06/26 08:47:36;;;;;;;3.30;2.50;;;;;;;25.74;44.98;99785.49;109396;1274;137592;-72
2022/06/26 08:50:04;;;;;;;5.40;2.80;;;;;;;25.79;45.12;99790.38;109457;1274;22479;-71
2022/06/26 08:52:31;;;;;;;9.30;2.70;;;;;;;25.84;44.36;99783.33;109520;1274;22454;-71
2022/06/26 08:54:58;;;;;;;4.90;2.50;;;;;;;25.88;44.36;99778.26;109397;1274;138951;-71
2022/06/26 08:57:25;;;;;;;6.40;2.90;;;;;;;25.96;45.72;99785.30;105447;1274;23059;-71
2022/06/26 08:59:52;;;;;;;5.30;2.60;;;;;;;26.07;44.55;99784.90;105081;1274;140279;-71
2022/06/26 09:02:19;;;;;;;9.30;2.70;;;;;;;26.12;44.19;99786.30;105124;1274;22563;-70
2022/06/26 09:04:46;;;;;;;7.60;2.50;;;;;;;26.14;44.58;99783.97;105069;1274;137661;-70
2022/06/26 09:07:12;;;;;;;4.90;2.50;;;;;;;26.19;43.94;99780.13;105128;1274;22548;-71
2022/06/26 09:09:39;;;;;;;5.30;2.50;;;;;;;26.27;43.30;99778.20;105098;1274;25263;-72
2022/06/26 09:12:06;;;;;;;4.60;2.90;;;;;;;26.36;42.63;99779.61;105057;1274;138581;-70
2022/06/26 09:14:33;;;;;;;5.70;3.10;;;;;;;26.44;42.62;99776.85;105012;1277;24302;-70
2022/06/26 09:17:00;;;;;;;8.70;3.30;;;;;;;26.49;41.73;99769.11;105019;1274;137585;-70
2022/06/26 09:19:33;;;;;;;5.30;2.70;;;;;;;26.51;41.31;99770.20;105133;1274;22636;-70
2022/06/26 09:22:13;;;;;;;3.50;2.80;;;;;;;26.48;42.12;99768.12;105087;1274;23006;-70
2022/06/26 09:24:41;;;;;;;3.40;2.50;;;;;;;26.43;42.99;99768.94;109364;1274;139884;-71
2022/06/26 09:27:15;;;;;;;2.90;2.50;;;;;;;26.39;43.67;99771.38;109431;1274;23146;-71
2022/06/26 09:29:48;;;;;;;3.70;2.30;;;;;;;26.39;43.38;99767.25;109429;1274;139281;-71
2022/06/26 09:32:15;;;;;;;5.20;2.70;;;;;;;26.45;42.66;99768.98;109466;1274;22421;-71
2022/06/26 09:34:46;;;;;;;3.10;2.80;;;;;;;26.52;43.12;99767.98;109378;1274;138437;-71
2022/06/26 09:37:13;;;;;;;3.20;2.70;;;;;;;26.59;42.96;99772.25;109470;1274;23348;-71
2022/06/26 09:40:00;;;;;;;3.40;2.40;;;;;;;26.63;42.38;99766.59;109477;1274;22570;-71
2022/06/26 09:42:27;;;;;;;6.00;2.80;;;;;;;26.63;42.24;99774.65;109401;1274;137650;-71
2022/06/26 09:44:54;;;;;;;3.20;2.40;;;;;;;26.56;42.02;99776.55;109331;1274;23196;-71
2022/06/26 09:47:25;;;;;;;6.30;2.50;;;;;;;26.46;42.39;99775.31;109343;1274;139248;-71
2022/06/26 09:49:54;;;;;;;2.50;2.20;;;;;;;26.36;42.79;99774.52;109472;1274;23416;-72
2022/06/26 09:52:22;;;;;;;3.60;2.50;;;;;;;26.26;42.58;99774.83;109546;1274;23212;-71
2022/06/26 09:54:48;;;;;;;3.50;2.70;;;;;;;26.23;43.12;99776.34;109391;1274;137477;-71
2022/06/26 09:57:15;;;;;;;2.40;2.00;;;;;;;26.22;43.86;99775.34;109461;1274;22653;-72
2022/06/26 09:59:42;;;;;;;4.50;2.40;;;;;;;26.22;43.21;99773.51;109367;1272;138529;-72
2022/06/26 10:07:51;;;;;;;4.40;2.90;;;;;;;26.25;43.50;99774.65;109506;1274;23182;-72
2022/06/26 10:10:20;;;;;;;3.40;2.40;;;;;;;26.26;42.92;99778.10;109530;1272;22413;-73
2022/06/26 10:12:49;;;;;;;6.40;2.70;;;;;;;26.21;42.67;99778.91;109405;1274;137383;-72
2022/06/26 10:15:17;;;;;;;10.90;2.50;;;;;;;26.13;43.10;99773.64;109507;1274;22337;-72
2022/06/26 10:18:09;;;;;;;3.50;3.00;;;;;;;26.07;43.24;99777.88;109371;1274;137947;-72
2022/06/26 10:20:36;;;;;;;3.40;2.60;;;;;;;26.04;43.40;99773.73;109460;1274;22254;-72
2022/06/26 10:23:03;;;;;;;3.50;2.50;;;;;;;26.08;44.12;99770.98;109181;1274;139033;-73
2022/06/26 10:25:31;;;;;;;5.70;2.80;;;;;;;26.21;43.49;99773.23;109466;1274;22502;-72
2022/06/26 10:27:58;;;;;;;4.70;2.80;;;;;;;26.36;43.85;99768.34;109469;1274;22440;-72
2022/06/26 10:30:25;;;;;;;3.40;2.50;;;;;;;26.47;43.73;99771.05;109445;1273;137433;-73
2022/06/26 10:33:18;;;;;;;6.50;2.70;;;;;;;26.56;43.45;99767.83;109504;1274;22380;-72
2022/06/26 10:35:56;;;;;;;3.10;2.50;;;;;;;26.63;43.42;99770.98;109340;1274;139388;-72
2022/06/26 10:38:24;;;;;;;3.20;2.50;;;;;;;26.67;43.36;99768.23;109511;1273;22444;-73
2022/06/26 10:44:16;;;;;;;3.60;3.00;;;;;;;26.67;41.52;99775.59;109540;1273;22435;-72
2022/06/26 10:46:47;;;;;;;2.70;2.50;;;;;;;26.59;41.48;99770.23;109391;1273;137952;-72
2022/06/26 10:49:14;;;;;;;3.00;2.50;;;;;;;26.52;42.69;99768.46;109486;1273;22430;-72
2022/06/26 10:51:42;;;;;;;4.40;2.70;;;;;;;26.51;42.63;99767.95;109347;1274;22537;-72
2022/06/26 10:54:22;;;;;;;5.00;3.00;;;;;;;26.52;42.52;99773.33;109417;1274;137415;-72
2022/06/26 10:57:16;;;;;;;2.80;2.60;;;;;;;26.51;43.27;99776.34;109504;1274;23463;-72
2022/06/26 10:59:43;;;;;;;9.80;2.80;;;;;;;26.50;43.44;99781.52;109413;1273;138271;-72
2022/06/26 11:02:11;;;;;;;4.60;2.60;;;;;;;26.47;43.77;99780.20;109487;1274;23016;-72
2022/06/26 11:04:50;;;;;;;5.20;2.50;;;;;;;26.40;43.68;99777.48;109390;1274;142774;-71
2022/06/26 11:07:17;;;;;;;4.20;2.80;;;;;;;26.31;44.04;99775.52;109467;1272;22390;-71
2022/06/26 11:09:44;;;;;;;5.50;3.90;;;;;;;26.26;44.24;99779.20;109238;1276;23192;-72
2022/06/26 11:12:11;;;;;;;3.30;2.50;;;;;;;26.23;44.53;99774.66;109392;1274;137793;-72
2022/06/26 11:14:37;;;;;;;5.90;2.80;;;;;;;26.22;44.20;99771.62;109437;1274;22422;-72
2022/06/26 11:17:05;;;;;;;5.50;3.20;;;;;;;26.25;44.47;99775.19;109403;1273;138292;-71
2022/06/26 11:22:19;;;;;;;9.50;2.80;;;;;;;26.26;44.72;99776.33;109490;1274;22368;-70
2022/06/26 11:24:49;;;;;;;3.90;2.80;;;;;;;26.23;44.63;99777.63;109276;1274;139242;-70
2022/06/26 11:27:25;;;;;;;3.80;3.20;;;;;;;26.20;45.07;99779.75;109491;1274;22453;-70
2022/06/26 11:29:52;;;;;;;2.70;2.30;;;;;;;26.19;44.24;99775.02;109345;1273;138502;-70
2022/06/26 11:32:25;;;;;;;5.10;2.60;;;;;;;26.20;44.23;99771.00;109527;1274;22453;-70
2022/06/26 11:34:53;;;;;;;6.50;3.00;;;;;;;26.24;43.58;99768.00;109407;1274;139421;-69
2022/06/26 11:37:35;;;;;;;4.50;2.60;;;;;;;26.23;43.45;99763.74;109472;1273;23649;-70
2022/06/26 11:40:15;;;;;;;9.40;3.40;;;;;;;26.23;43.85;99768.75;109476;1274;23276;-70
2022/06/26 11:42:42;;;;;;;3.40;2.50;;;;;;;26.28;43.99;99767.53;109356;1274;137548;-70
2022/06/26 11:45:09;;;;;;;3.10;2.60;;;;;;;26.36;43.36;99763.83;109487;1274;22465;-70
2022/06/26 11:47:37;;;;;;;3.70;2.50;;;;;;;26.45;43.72;99758.59;109412;1274;137917;-72
2022/06/26 11:50:07;;;;;;;6.90;2.60;;;;;;;26.54;43.52;99763.23;109315;1274;22476;-72
2022/06/26 11:52:34;;;;;;;3.00;2.70;;;;;;;26.65;42.95;99760.58;109403;1274;22410;-72
2022/06/26 11:55:01;;;;;;;2.70;2.50;;;;;;;26.73;42.83;99755.04;109520;1273;22457;-71